createdAt,value
2018-02-04T00:01:42.323Z,0.60
2018-02-04T00:04:09.738Z,0.70
2018-02-04T00:06:37.222Z,0.70
2018-02-04T00:09:04.630Z,0.70
2018-02-04T00:11:32.050Z,0.70
2018-02-04T00:13:59.484Z,0.70
2018-02-04T00:16:26.901Z,0.60
2018-02-04T00:18:54.316Z,0.60
2018-02-04T00:21:21.742Z,0.60
2018-02-04T00:23:49.158Z,0.60
2018-02-04T00:26:17.358Z,0.60
2018-02-04T00:28:45.579Z,0.60
2018-02-04T00:31:13.765Z,0.70
2018-02-04T00:33:41.225Z,0.70
2018-02-04T00:36:08.633Z,0.70
2018-02-04T00:38:37.551Z,0.70
2018-02-04T00:41:04.972Z,0.70
2018-02-04T00:43:32.375Z,0.70
2018-02-04T00:46:00.558Z,0.70
2018-02-04T00:48:28.077Z,0.70
2018-02-04T00:50:55.562Z,0.80
2018-02-04T00:53:22.975Z,0.80
2018-02-04T00:55:50.396Z,0.80
2018-02-04T00:58:17.804Z,0.80
2018-02-04T01:00:45.241Z,0.80
2018-02-04T01:03:12.666Z,0.80
2018-02-04T01:05:40.058Z,0.80
2018-02-04T01:08:07.469Z,0.80
2018-02-04T01:10:34.915Z,0.80
2018-02-04T01:13:02.324Z,0.80
2018-02-04T01:15:29.738Z,0.70
2018-02-04T01:17:57.161Z,0.70
2018-02-04T01:20:24.577Z,0.70
2018-02-04T01:22:52.012Z,0.80
2018-02-04T01:25:20.189Z,0.80
2018-02-04T01:27:48.386Z,0.70
2018-02-04T01:30:16.581Z,0.70
2018-02-04T01:32:44.782Z,0.60
2018-02-04T01:35:12.255Z,0.60
2018-02-04T01:37:39.673Z,0.70
2018-02-04T01:40:07.189Z,0.60
2018-02-04T01:42:34.606Z,0.60
2018-02-04T01:45:02.090Z,0.60
2018-02-04T01:47:29.612Z,0.60
2018-02-04T01:49:57.068Z,0.60
2018-02-04T01:52:24.486Z,0.60
2018-02-04T01:54:52.002Z,0.60
2018-02-04T01:57:19.424Z,0.60
2018-02-04T01:59:46.836Z,0.50
2018-02-04T02:02:14.262Z,0.40
2018-02-04T02:04:41.670Z,0.40
2018-02-04T02:07:09.085Z,0.40
2018-02-04T02:09:36.512Z,0.40
2018-02-04T02:12:03.938Z,0.50
2018-02-04T02:14:31.343Z,0.50
2018-02-04T02:16:58.772Z,0.50
2018-02-04T02:19:26.178Z,0.40
2018-02-04T02:21:53.594Z,0.40
2018-02-04T02:24:21.014Z,0.40
2018-02-04T02:26:48.488Z,0.40
2018-02-04T02:29:16.677Z,0.30
2018-02-04T02:31:44.093Z,0.30
2018-02-04T02:34:11.610Z,0.40
2018-02-04T02:36:39.026Z,0.30
2018-02-04T02:39:06.461Z,0.30
2018-02-04T02:41:33.923Z,0.40
2018-02-04T02:44:01.334Z,0.40
2018-02-04T02:46:28.770Z,0.30
2018-02-04T02:48:56.177Z,0.30
2018-02-04T02:51:23.691Z,0.30
2018-02-04T02:53:51.106Z,0.40
2018-02-04T02:56:18.524Z,0.30
2018-02-04T02:58:45.957Z,0.30
2018-02-04T03:01:14.133Z,0.30
2018-02-04T03:03:41.541Z,0.30
2018-02-04T03:06:08.961Z,0.30
2018-02-04T03:08:36.500Z,0.40
2018-02-04T03:11:03.967Z,0.50
2018-02-04T03:13:31.377Z,0.40
2018-02-04T03:15:58.802Z,0.30
2018-02-04T03:18:26.220Z,0.30
2018-02-04T03:20:53.624Z,0.50
2018-02-04T03:23:21.043Z,0.50
2018-02-04T03:25:48.453Z,0.50
2018-02-04T03:28:15.873Z,0.50
2018-02-04T03:30:43.395Z,0.50
2018-02-04T03:33:10.807Z,0.40
2018-02-04T03:35:38.229Z,0.40
2018-02-04T03:38:05.635Z,0.50
2018-02-04T03:40:33.049Z,0.50
2018-02-04T03:43:01.236Z,0.60
2018-02-04T03:45:29.417Z,0.60
2018-02-04T03:47:57.609Z,0.60
2018-02-04T03:50:25.782Z,0.60
2018-02-04T03:52:53.971Z,0.50
2018-02-04T03:55:22.146Z,0.60
2018-02-04T03:57:49.662Z,0.50
2018-02-04T04:00:17.074Z,0.50
2018-02-04T04:02:44.490Z,0.40
2018-02-04T04:05:11.913Z,0.40
2018-02-04T04:07:39.352Z,0.50
2018-02-04T04:10:06.769Z,0.50
2018-02-04T04:12:34.956Z,0.40
2018-02-04T04:15:03.179Z,0.40
2018-02-04T04:17:30.606Z,0.40
2018-02-04T04:19:58.820Z,0.30
2018-02-04T04:22:26.290Z,0.30
2018-02-04T04:24:53.759Z,0.30
2018-02-04T04:27:21.181Z,0.30
2018-02-04T04:29:48.602Z,0.30
2018-02-04T04:32:16.015Z,0.30
2018-02-04T04:34:43.434Z,0.30
2018-02-04T04:37:10.845Z,0.40
2018-02-04T04:39:38.363Z,0.40
2018-02-04T04:42:05.837Z,0.40
2018-02-04T04:44:33.255Z,0.30
2018-02-04T04:47:00.666Z,0.30
2018-02-04T04:49:28.089Z,0.30
2018-02-04T04:51:55.502Z,0.20
2018-02-04T04:54:22.925Z,0.20
2018-02-04T04:56:50.342Z,0.30
2018-02-04T04:59:17.759Z,0.30
2018-02-04T05:01:45.281Z,0.30
2018-02-04T05:04:13.447Z,0.20
2018-02-04T05:06:41.622Z,0.20
2018-02-04T05:09:09.797Z,0.30
2018-02-04T05:11:37.213Z,0.30
2018-02-04T05:14:04.630Z,0.30
2018-02-04T05:16:32.141Z,0.30
2018-02-04T05:18:59.549Z,0.40
2018-02-04T05:21:26.979Z,0.30
2018-02-04T05:23:54.385Z,0.40
2018-02-04T05:26:21.817Z,0.40
2018-02-04T05:28:49.247Z,0.40
2018-02-04T05:31:16.650Z,0.40
2018-02-04T05:33:44.066Z,0.40
2018-02-04T05:36:11.475Z,0.40
2018-02-04T05:38:38.890Z,0.30
2018-02-04T05:41:06.333Z,0.30
2018-02-04T05:43:33.785Z,0.30
2018-02-04T05:46:01.204Z,0.30
2018-02-04T05:48:28.630Z,0.30
2018-02-04T05:50:56.037Z,0.30
2018-02-04T05:53:23.558Z,0.30
2018-02-04T05:55:50.978Z,0.30
2018-02-04T05:58:18.401Z,0.30
2018-02-04T06:00:45.813Z,0.20
2018-02-04T06:03:13.236Z,0.20
2018-02-04T06:05:40.641Z,0.20
2018-02-04T06:08:08.053Z,0.20
2018-02-04T06:10:35.457Z,0.30
2018-02-04T06:13:02.910Z,0.30
2018-02-04T06:15:30.341Z,0.30
2018-02-04T06:17:58.520Z,0.30
2018-02-04T06:20:25.958Z,0.30
2018-02-04T06:22:53.381Z,0.30
2018-02-04T06:25:21.585Z,0.30
2018-02-04T06:27:49.068Z,0.20
2018-02-04T06:30:16.483Z,0.20
2018-02-04T06:32:43.890Z,0.20
2018-02-04T06:35:11.311Z,0.10
2018-02-04T06:37:38.832Z,0.00
2018-02-04T06:40:07.012Z,0.00
2018-02-04T06:42:34.482Z,0.00
2018-02-04T06:45:01.909Z,0.10
2018-02-04T06:47:29.319Z,0.10
2018-02-04T06:49:57.507Z,0.10
2018-02-04T06:52:25.698Z,0.10
2018-02-04T06:54:53.123Z,0.00
2018-02-04T06:57:20.529Z,0.10
2018-02-04T06:59:47.951Z,0.20
2018-02-04T07:02:15.413Z,0.20
2018-02-04T07:04:42.817Z,0.20
2018-02-04T07:07:11.044Z,0.30
2018-02-04T07:09:38.460Z,0.30
2018-02-04T07:12:05.981Z,0.30
2018-02-04T07:14:33.397Z,0.30
2018-02-04T07:17:00.925Z,0.30
2018-02-04T07:19:28.353Z,0.30
2018-02-04T07:21:56.532Z,0.40
2018-02-04T07:24:24.714Z,0.30
2018-02-04T07:26:52.948Z,0.30
2018-02-04T07:29:20.415Z,0.30
2018-02-04T07:31:47.831Z,0.20
2018-02-04T07:34:15.252Z,0.20
2018-02-04T07:36:42.847Z,0.20
2018-02-04T07:39:10.246Z,0.20
2018-02-04T07:41:37.676Z,0.20
2018-02-04T07:44:05.080Z,0.10
2018-02-04T07:46:32.490Z,0.10
2018-02-04T07:48:59.905Z,0.10
2018-02-04T07:51:27.426Z,0.10
2018-02-04T07:53:54.863Z,-0.10
2018-02-04T07:56:22.385Z,-0.10
2018-02-04T07:58:49.868Z,0.00
2018-02-04T08:01:17.280Z,0.10
2018-02-04T08:03:44.761Z,0.10
2018-02-04T08:06:12.178Z,0.10
2018-02-04T08:08:39.585Z,0.10
2018-02-04T08:11:07.010Z,0.20
2018-02-04T08:13:34.422Z,0.30
2018-02-04T08:16:01.951Z,0.30
2018-02-04T08:18:29.369Z,0.30
2018-02-04T08:20:56.798Z,0.40
2018-02-04T08:23:24.221Z,0.40
2018-02-04T08:25:52.420Z,0.50
2018-02-04T08:28:20.598Z,0.40
2018-02-04T08:30:48.039Z,0.40
2018-02-04T08:33:15.445Z,0.30
2018-02-04T08:35:43.665Z,0.20
2018-02-04T08:38:11.138Z,0.20
2018-02-04T08:40:38.545Z,0.30
2018-02-04T08:43:05.962Z,0.30
2018-02-04T08:45:33.390Z,0.30
2018-02-04T08:48:00.805Z,0.20
2018-02-04T08:50:28.226Z,0.30
2018-02-04T08:52:55.646Z,0.30
2018-02-04T08:55:23.113Z,0.30
2018-02-04T08:57:50.573Z,0.40
2018-02-04T09:00:18.001Z,0.40
2018-02-04T09:02:45.665Z,0.50
2018-02-04T09:05:13.062Z,0.50
2018-02-04T09:07:41.247Z,0.40
2018-02-04T09:10:09.413Z,0.50
2018-02-04T09:12:36.829Z,0.50
2018-02-04T09:15:04.295Z,0.50
2018-02-04T09:17:31.694Z,0.50
2018-02-04T09:19:59.157Z,0.50
2018-02-04T09:22:26.564Z,0.60
2018-02-04T09:24:54.745Z,0.70
2018-02-04T09:27:22.249Z,0.70
2018-02-04T09:29:49.674Z,0.80
2018-02-04T09:32:18.589Z,0.80
2018-02-04T09:34:46.779Z,0.90
2018-02-04T09:37:14.958Z,0.80
2018-02-04T09:39:43.173Z,1.00
2018-02-04T09:42:10.652Z,0.90
2018-02-04T09:44:38.065Z,1.10
2018-02-04T09:47:05.487Z,1.30
2018-02-04T09:49:32.902Z,1.20
2018-02-04T09:52:00.337Z,1.30
2018-02-04T09:54:27.771Z,1.30
2018-02-04T09:56:55.941Z,1.10
2018-02-04T09:59:24.175Z,1.00
2018-02-04T10:01:51.589Z,1.00
2018-02-04T10:04:19.019Z,1.10
2018-02-04T10:06:46.469Z,1.10
2018-02-04T10:09:14.044Z,1.10
2018-02-04T10:11:42.286Z,0.90
2018-02-04T10:14:09.662Z,0.90
2018-02-04T10:16:37.852Z,1.00
2018-02-04T10:19:06.025Z,1.10
2018-02-04T10:21:33.463Z,1.00
2018-02-04T10:24:00.940Z,1.10
2018-02-04T10:26:28.349Z,1.10
2018-02-04T10:28:56.566Z,1.10
2018-02-04T10:31:24.004Z,1.10
2018-02-04T10:33:52.225Z,1.20
2018-02-04T10:36:19.656Z,1.20
2018-02-04T10:38:47.878Z,1.20
2018-02-04T10:41:15.293Z,1.20
2018-02-04T10:43:42.724Z,1.20
2018-02-04T10:46:10.125Z,1.30
2018-02-04T10:48:38.305Z,1.30
2018-02-04T10:51:11.554Z,1.30
2018-02-04T10:53:38.974Z,1.40
2018-02-04T10:56:06.475Z,1.30
2018-02-04T10:58:34.655Z,1.30
2018-02-04T11:01:02.841Z,1.40
2018-02-04T11:03:31.049Z,1.40
2018-02-04T11:05:58.461Z,1.40
2018-02-04T11:08:25.925Z,1.30
2018-02-04T11:10:53.356Z,1.20
2018-02-04T11:13:20.769Z,1.30
2018-02-04T11:15:48.273Z,1.50
2018-02-04T11:18:16.456Z,2.00
2018-02-04T11:20:44.648Z,2.10
2018-02-04T11:23:12.853Z,2.30
2018-02-04T11:25:40.267Z,2.20
2018-02-04T11:28:07.706Z,2.40
2018-02-04T11:30:35.164Z,2.50
2018-02-04T11:33:02.586Z,2.40
2018-02-04T11:35:30.109Z,2.30
2018-02-04T11:37:57.533Z,2.30
2018-02-04T11:40:25.031Z,2.60
2018-02-04T11:42:52.463Z,2.70
2018-02-04T11:45:19.886Z,2.60
2018-02-04T11:47:47.306Z,2.40
2018-02-04T11:50:15.517Z,4.20
2018-02-04T11:52:42.938Z,4.20
2018-02-04T11:55:10.362Z,6.00
2018-02-04T11:57:37.804Z,8.50
2018-02-04T12:00:06.006Z,10.20
2018-02-04T12:02:33.425Z,10.20
2018-02-04T12:05:00.854Z,10.90
2018-02-04T12:07:28.268Z,12.00
2018-02-04T12:09:55.716Z,12.30
2018-02-04T12:12:23.167Z,10.60
2018-02-04T12:14:50.577Z,9.60
2018-02-04T12:17:18.011Z,9.20
2018-02-04T12:19:45.437Z,9.10
2018-02-04T12:22:13.643Z,8.00
2018-02-04T12:24:41.061Z,8.00
2018-02-04T12:27:08.473Z,7.30
2018-02-04T12:29:35.898Z,6.40
2018-02-04T12:32:03.314Z,5.60
2018-02-04T12:34:30.751Z,5.00
2018-02-04T12:36:58.997Z,4.20
2018-02-04T12:39:26.405Z,4.00
2018-02-04T12:41:54.612Z,3.50
2018-02-04T12:44:22.071Z,3.50
2018-02-04T12:46:49.494Z,3.00
2018-02-04T12:49:16.914Z,3.00
2018-02-04T12:51:45.097Z,3.20
2018-02-04T12:54:13.289Z,3.30
2018-02-04T12:56:41.506Z,3.60
2018-02-04T12:59:08.913Z,3.60
2018-02-04T13:01:36.343Z,3.90
2018-02-04T13:04:03.761Z,4.20
2018-02-04T13:06:31.189Z,4.50
2018-02-04T13:08:58.677Z,4.90
2018-02-04T13:11:26.093Z,5.20
2018-02-04T13:13:53.512Z,5.60
2018-02-04T13:16:20.928Z,5.70
2018-02-04T13:18:48.393Z,5.70
2018-02-04T13:21:15.943Z,5.30
2018-02-04T13:23:43.336Z,4.90
2018-02-04T13:26:10.786Z,4.70
2018-02-04T13:28:38.215Z,4.40
2018-02-04T13:31:05.690Z,4.20
2018-02-04T13:33:33.114Z,3.70
2018-02-04T13:36:00.533Z,3.20
2018-02-04T13:38:28.006Z,3.10
2018-02-04T13:40:55.463Z,3.00
2018-02-04T13:43:23.640Z,2.70
2018-02-04T13:45:51.862Z,2.70
2018-02-04T13:48:19.308Z,2.70
2018-02-04T13:50:46.712Z,2.70
2018-02-04T13:53:14.145Z,2.60
2018-02-04T13:55:41.602Z,2.60
2018-02-04T13:58:09.030Z,2.70
2018-02-04T14:00:36.437Z,2.70
2018-02-04T14:03:03.858Z,2.60
2018-02-04T14:05:31.382Z,2.60
2018-02-04T14:07:58.851Z,2.60
2018-02-04T14:10:26.337Z,2.60
2018-02-04T14:12:53.811Z,2.60
2018-02-04T14:15:21.211Z,2.60
2018-02-04T14:17:48.662Z,2.50
2018-02-04T14:20:16.074Z,2.40
2018-02-04T14:22:44.313Z,2.30
2018-02-04T14:25:11.717Z,2.30
2018-02-04T14:27:39.148Z,2.30
2018-02-04T14:30:06.593Z,2.30
2018-02-04T14:32:34.010Z,2.20
2018-02-04T14:35:02.926Z,2.10
2018-02-04T14:37:30.339Z,2.10
2018-02-04T14:39:58.517Z,2.20
2018-02-04T14:42:25.950Z,2.10
2018-02-04T14:44:54.146Z,2.20
2018-02-04T14:47:22.373Z,2.20
2018-02-04T14:49:49.818Z,2.20
2018-02-04T14:52:17.232Z,2.20
2018-02-04T14:54:44.638Z,2.20
2018-02-04T14:57:12.115Z,2.30
2018-02-04T14:59:39.482Z,2.20
2018-02-04T15:02:06.950Z,2.10
2018-02-04T15:04:34.384Z,2.20
2018-02-04T15:07:01.774Z,2.10
2018-02-04T15:09:29.949Z,2.20
2018-02-04T15:11:58.127Z,2.20
2018-02-04T15:14:25.558Z,2.20
2018-02-04T15:16:52.989Z,2.30
2018-02-04T15:19:20.421Z,2.30
2018-02-04T15:21:48.073Z,2.30
2018-02-04T15:24:15.485Z,2.30
2018-02-04T15:26:42.970Z,2.20
2018-02-04T15:29:10.406Z,2.20
2018-02-04T15:31:37.924Z,2.20
2018-02-04T15:34:05.330Z,2.20
2018-02-04T15:36:32.856Z,2.10
2018-02-04T15:39:00.311Z,2.10
2018-02-04T15:41:28.487Z,2.20
2018-02-04T15:43:56.721Z,2.10
2018-02-04T15:46:24.165Z,2.10
2018-02-04T15:48:52.323Z,2.00
2018-02-04T15:51:20.506Z,2.00
2018-02-04T15:53:48.699Z,2.00
2018-02-04T15:56:16.881Z,2.10
2018-02-04T15:58:45.064Z,2.00
2018-02-04T16:01:13.245Z,2.00
2018-02-04T16:03:40.648Z,2.00
2018-02-04T16:06:08.056Z,1.90
2018-02-04T16:08:35.607Z,2.00
2018-02-04T16:11:03.009Z,2.00
2018-02-04T16:13:30.537Z,1.90
2018-02-04T16:15:57.997Z,1.90
2018-02-04T16:18:25.466Z,1.90
2018-02-04T16:20:52.881Z,1.90
2018-02-04T16:23:20.401Z,1.90
2018-02-04T16:25:47.929Z,1.90
2018-02-04T16:28:15.290Z,1.90
2018-02-04T16:30:42.765Z,1.90
2018-02-04T16:33:10.178Z,1.90
2018-02-04T16:35:37.589Z,2.00
2018-02-04T16:38:05.030Z,2.00
2018-02-04T16:40:32.455Z,2.00
2018-02-04T16:42:59.854Z,2.00
2018-02-04T16:45:27.311Z,2.00
2018-02-04T16:47:54.734Z,2.00
2018-02-04T16:50:22.194Z,2.00
2018-02-04T16:52:49.642Z,2.00
2018-02-04T16:55:17.187Z,1.90
2018-02-04T16:57:45.373Z,1.90
2018-02-04T17:00:12.812Z,1.90
2018-02-04T17:02:40.991Z,1.90
2018-02-04T17:05:09.919Z,1.90
2018-02-04T17:07:38.107Z,1.90
2018-02-04T17:10:05.531Z,1.90
2018-02-04T17:12:32.953Z,1.90
2018-02-04T17:15:00.377Z,1.90
2018-02-04T17:17:27.804Z,1.80
2018-02-04T17:19:55.258Z,1.70
2018-02-04T17:22:22.724Z,1.70
2018-02-04T17:24:50.316Z,1.80
2018-02-04T17:27:17.713Z,1.80
2018-02-04T17:29:45.138Z,1.70
2018-02-04T17:32:12.565Z,1.80
2018-02-04T17:34:39.972Z,1.80
2018-02-04T17:37:07.389Z,1.80
2018-02-04T17:39:34.816Z,1.70
2018-02-04T17:42:02.254Z,1.60
2018-02-04T17:44:30.449Z,1.70
2018-02-04T17:46:57.862Z,1.70
2018-02-04T17:49:26.042Z,1.80
2018-02-04T17:51:53.467Z,1.80
2018-02-04T17:54:20.922Z,1.90
2018-02-04T17:56:49.103Z,1.90
2018-02-04T17:59:17.292Z,1.90
2018-02-04T18:01:45.514Z,1.90
2018-02-04T18:04:12.961Z,1.90
2018-02-04T18:06:41.551Z,1.90
2018-02-04T18:09:09.721Z,1.90
2018-02-04T18:11:37.909Z,1.90
2018-02-04T18:14:06.094Z,1.90
2018-02-04T18:16:33.605Z,1.90
2018-02-04T18:19:01.032Z,2.00
2018-02-04T18:21:28.465Z,1.90
2018-02-04T18:23:55.889Z,1.90
2018-02-04T18:26:23.341Z,1.90
2018-02-04T18:28:51.521Z,2.00
2018-02-04T18:31:19.753Z,2.00
2018-02-04T18:33:47.166Z,2.00
2018-02-04T18:36:14.577Z,2.00
2018-02-04T18:38:41.993Z,2.00
2018-02-04T18:41:09.407Z,2.00
2018-02-04T18:43:37.449Z,2.00
2018-02-04T18:46:05.648Z,2.00
2018-02-04T18:48:34.586Z,2.00
2018-02-04T18:51:02.014Z,2.00
2018-02-04T18:53:29.525Z,2.00
2018-02-04T18:55:57.002Z,2.00
2018-02-04T18:58:24.437Z,2.00
2018-02-04T19:00:52.648Z,2.00
2018-02-04T19:03:20.062Z,2.00
2018-02-04T19:05:47.590Z,1.90
2018-02-04T19:08:15.052Z,1.90
2018-02-04T19:10:42.469Z,1.90
2018-02-04T19:13:10.644Z,2.00
2018-02-04T19:15:38.065Z,2.00
2018-02-04T19:18:06.242Z,1.90
2018-02-04T19:20:34.442Z,2.00
2018-02-04T19:23:01.878Z,2.00
2018-02-04T19:25:29.303Z,1.90
2018-02-04T19:27:56.714Z,1.90
2018-02-04T19:30:24.209Z,1.90
2018-02-04T19:32:52.391Z,1.90
2018-02-04T19:35:20.581Z,2.00
2018-02-04T19:37:48.003Z,1.90
2018-02-04T19:40:15.412Z,2.00
2018-02-04T19:42:42.898Z,2.00
2018-02-04T19:45:11.054Z,2.00
2018-02-04T19:47:39.373Z,2.00
2018-02-04T19:50:07.536Z,2.00
2018-02-04T19:52:36.916Z,2.00
2018-02-04T19:55:04.342Z,2.00
2018-02-04T19:57:32.661Z,1.90
2018-02-04T20:00:00.071Z,1.90
2018-02-04T20:02:27.472Z,2.00
2018-02-04T20:04:54.946Z,1.90
2018-02-04T20:07:22.379Z,1.90
2018-02-04T20:09:49.828Z,1.90
2018-02-04T20:12:17.238Z,1.90
2018-02-04T20:14:44.658Z,1.90
2018-02-04T20:17:12.928Z,1.90
2018-02-04T20:19:40.376Z,1.90
2018-02-04T20:22:07.777Z,1.90
2018-02-04T20:24:35.300Z,2.00
2018-02-04T20:27:02.734Z,2.00
2018-02-04T20:29:30.161Z,2.10
2018-02-04T20:31:57.592Z,2.10
2018-02-04T20:34:36.950Z,2.10
2018-02-04T20:37:05.281Z,2.00
2018-02-04T20:39:32.698Z,2.00
2018-02-04T20:42:00.143Z,2.00
2018-02-04T20:44:27.654Z,2.10
2018-02-04T20:46:55.083Z,2.10
2018-02-04T20:49:23.261Z,2.10
2018-02-04T20:51:50.718Z,2.10
2018-02-04T20:54:18.131Z,2.10
2018-02-04T20:56:45.546Z,2.10
2018-02-04T20:59:12.990Z,2.10
2018-02-04T21:01:40.408Z,2.10
2018-02-04T21:04:07.960Z,2.10
2018-02-04T21:06:35.345Z,2.10
2018-02-04T21:09:02.771Z,2.10
2018-02-04T21:11:30.192Z,2.10
2018-02-04T21:13:58.444Z,2.10
2018-02-04T21:16:25.838Z,2.10
2018-02-04T21:18:53.262Z,2.10
2018-02-04T21:21:20.721Z,2.10
2018-02-04T21:23:48.154Z,2.00
2018-02-04T21:26:16.358Z,2.00
2018-02-04T21:28:43.809Z,1.90
2018-02-04T21:31:11.983Z,2.00
2018-02-04T21:33:40.203Z,2.00
2018-02-04T21:36:07.624Z,2.00
2018-02-04T21:38:35.873Z,2.20
2018-02-04T21:41:03.281Z,2.10
2018-02-04T21:43:30.710Z,2.10
2018-02-04T21:45:58.133Z,2.10
2018-02-04T21:48:26.350Z,2.10
2018-02-04T21:50:53.765Z,2.10
2018-02-04T21:53:21.188Z,2.10
2018-02-04T21:55:48.617Z,2.10
2018-02-04T21:58:16.114Z,2.10
2018-02-04T22:00:43.530Z,2.10
2018-02-04T22:03:10.953Z,2.10
2018-02-04T22:05:38.377Z,2.10
2018-02-04T22:08:07.355Z,2.00
2018-02-04T22:10:34.783Z,2.00
2018-02-04T22:13:02.182Z,2.00
2018-02-04T22:15:29.603Z,1.90
2018-02-04T22:17:57.005Z,1.90
2018-02-04T22:20:24.417Z,1.90
2018-02-04T22:22:51.887Z,1.90
2018-02-04T22:25:20.872Z,1.90
2018-02-04T22:27:48.289Z,1.90
2018-02-04T22:30:16.468Z,1.90
2018-02-04T22:32:44.682Z,1.90
2018-02-04T22:35:12.103Z,1.90
2018-02-04T22:37:39.510Z,1.90
2018-02-04T22:40:06.933Z,1.90
2018-02-04T22:42:34.453Z,1.90
2018-02-04T22:45:01.867Z,1.80
2018-02-04T22:47:29.302Z,1.90
2018-02-04T22:49:56.717Z,1.80
2018-02-04T22:52:24.126Z,1.90
2018-02-04T22:54:51.592Z,1.90
2018-02-04T22:57:19.755Z,2.00
2018-02-04T22:59:47.949Z,2.00
2018-02-04T23:02:16.117Z,2.00
2018-02-04T23:04:43.580Z,2.00
2018-02-04T23:07:10.994Z,2.00
2018-02-04T23:09:38.467Z,2.10
2018-02-04T23:12:05.905Z,2.10
2018-02-04T23:14:34.101Z,2.10
2018-02-04T23:17:02.303Z,2.10
2018-02-04T23:19:29.722Z,2.00
2018-02-04T23:21:57.146Z,2.00
2018-02-04T23:24:24.573Z,1.90
2018-02-04T23:26:52.138Z,1.80
2018-02-04T23:29:19.533Z,1.80
2018-02-04T23:31:46.961Z,1.70
2018-02-04T23:34:14.374Z,1.80
2018-02-04T23:36:41.801Z,1.80
2018-02-04T23:39:09.210Z,1.90
2018-02-04T23:41:36.657Z,1.90
2018-02-04T23:44:04.067Z,2.00
2018-02-04T23:46:31.501Z,2.00
2018-02-04T23:48:59.704Z,2.10
2018-02-04T23:51:27.915Z,2.10
2018-02-04T23:53:55.338Z,2.10
2018-02-04T23:56:23.562Z,2.10
2018-02-04T23:58:50.994Z,2.00
